Time;durP1;ratioP1;P1;durP2;ratioP2;P2;SDS_P1;SDS_P2;PMS_P1;PMS_P2;Temp;Humidity;BMP_temperature;BMP_pressure;BME280_temperature;BME280_humidity;BME280_pressure;Samples;Min_cycle;Max_cycle;Signal;HPM_P1;HPM_P2
2023/09/24 00:01:04;;;;;;;3.85;1.70;;;12.40;99.90;;;;;;5095758;28;20040;-60
2023/09/24 00:03:32;;;;;;;2.33;1.80;;;12.40;99.90;;;;;;5098037;28;20044;-60
2023/09/24 00:06:04;;;;;;;2.28;2.05;;;12.30;99.90;;;;;;5072365;28;20693;-61
2023/09/24 00:08:30;;;;;;;2.90;1.70;;;12.30;99.90;;;;;;5083325;28;20063;-61
2023/09/24 00:10:56;;;;;;;2.42;1.90;;;12.30;99.90;;;;;;5099599;28;20092;-61
2023/09/24 00:13:22;;;;;;;5.00;2.22;;;12.20;99.90;;;;;;5087616;28;20206;-60
2023/09/24 00:15:49;;;;;;;3.08;1.90;;;12.20;99.90;;;;;;5103015;28;20105;-60
2023/09/24 00:18:17;;;;;;;2.20;1.67;;;12.20;99.90;;;;;;5100962;28;20035;-61
2023/09/24 00:20:43;;;;;;;4.38;1.83;;;12.20;99.90;;;;;;5102811;28;20044;-61
2023/09/24 00:23:08;;;;;;;1.95;1.80;;;12.20;99.90;;;;;;5084234;28;20035;-60
2023/09/24 00:25:34;;;;;;;4.82;1.90;;;12.10;99.90;;;;;;5091681;28;20036;-60
2023/09/24 00:27:59;;;;;;;3.40;2.10;;;12.10;99.90;;;;;;5089126;28;20031;-61
2023/09/24 00:30:25;;;;;;;2.33;1.63;;;12.10;99.90;;;;;;5083998;28;20155;-61
2023/09/24 00:32:53;;;;;;;3.42;1.70;;;12.10;99.90;;;;;;5108099;28;20040;-61
2023/09/24 00:35:19;;;;;;;2.30;1.63;;;12.10;99.90;;;;;;5098306;28;20066;-62
2023/09/24 00:37:45;;;;;;;2.65;1.90;;;12.10;99.90;;;;;;5063645;28;21717;-60
2023/09/24 00:40:11;;;;;;;2.67;2.13;;;12.10;99.90;;;;;;5098828;28;20506;-62
2023/09/24 00:42:37;;;;;;;2.08;1.70;;;12.10;99.90;;;;;;5081027;28;20056;-61
2023/09/24 00:45:09;;;;;;;3.97;2.05;;;12.10;99.90;;;;;;5099335;28;20032;-60
2023/09/24 00:47:37;;;;;;;2.10;1.88;;;12.10;99.90;;;;;;5081653;28;20135;-61
2023/09/24 00:50:02;;;;;;;2.75;2.00;;;12.10;99.90;;;;;;5101732;28;20526;-60
2023/09/24 00:52:28;;;;;;;4.50;2.50;;;12.10;99.90;;;;;;5080684;28;20053;-60
2023/09/24 00:54:56;;;;;;;2.38;2.10;;;12.00;99.90;;;;;;5100309;28;20032;-60
2023/09/24 00:57:21;;;;;;;4.18;2.33;;;12.00;99.90;;;;;;5084412;28;20039;-61
2023/09/24 00:59:47;;;;;;;2.78;2.35;;;12.00;99.90;;;;;;5076301;28;20040;-61
2023/09/24 01:02:13;;;;;;;3.83;2.47;;;12.00;99.90;;;;;;5078481;28;20028;-60
2023/09/24 01:04:39;;;;;;;2.65;2.45;;;12.00;99.90;;;;;;5110182;28;20402;-60
2023/09/24 01:07:05;;;;;;;3.30;2.38;;;12.00;99.90;;;;;;5077355;28;20700;-61
2023/09/24 01:09:31;;;;;;;2.90;2.50;;;12.00;99.90;;;;;;5086479;28;20046;-61
2023/09/24 01:12:03;;;;;;;5.30;3.08;;;12.00;99.90;;;;;;5102055;28;20040;-61
2023/09/24 01:14:28;;;;;;;5.22;3.42;;;12.00;99.90;;;;;;5098711;28;20513;-60
2023/09/24 01:16:54;;;;;;;3.65;3.35;;;12.00;99.90;;;;;;5104182;28;20044;-60
2023/09/24 01:19:22;;;;;;;5.53;3.83;;;12.00;99.90;;;;;;5104884;28;20130;-59
2023/09/24 01:21:50;;;;;;;4.93;3.50;;;12.00;99.90;;;;;;5085802;28;20048;-62
2023/09/24 01:24:15;;;;;;;5.97;3.78;;;12.00;99.90;;;;;;5089602;28;20118;-61
2023/09/24 01:26:41;;;;;;;4.63;3.42;;;12.00;99.90;;;;;;5101158;28;20056;-61
2023/09/24 01:29:11;;;;;;;6.50;3.88;;;12.00;99.90;;;;;;5084231;28;20039;-61
2023/09/24 01:31:38;;;;;;;5.78;3.50;;;12.00;99.90;;;;;;5086549;28;20062;-61
2023/09/24 01:34:05;;;;;;;3.75;2.95;;;12.00;99.90;;;;;;5103280;28;20386;-62
2023/09/24 01:36:32;;;;;;;3.92;3.35;;;11.90;99.90;;;;;;5106050;28;20069;-61
2023/09/24 01:38:58;;;;;;;4.15;3.30;;;11.90;99.90;;;;;;5086553;28;20525;-61
2023/09/24 01:41:25;;;;;;;4.57;3.47;;;11.80;99.90;;;;;;5087068;28;20132;-61
2023/09/24 01:43:52;;;;;;;5.65;3.92;;;11.80;99.90;;;;;;5101141;28;20032;-61
2023/09/24 01:46:20;;;;;;;5.82;3.22;;;11.80;99.90;;;;;;5105404;28;20031;-60
2023/09/24 01:48:50;;;;;;;4.28;2.85;;;11.80;99.90;;;;;;5098479;28;20040;-60
2023/09/24 01:51:15;;;;;;;4.13;2.88;;;11.70;99.90;;;;;;5083532;28;20036;-60
2023/09/24 01:53:42;;;;;;;6.03;3.13;;;11.70;99.90;;;;;;5095921;28;20153;-60
2023/09/24 01:56:08;;;;;;;3.55;2.92;;;11.70;99.90;;;;;;5091969;28;20108;-60
2023/09/24 01:58:37;;;;;;;4.55;2.83;;;11.70;99.90;;;;;;5083581;28;20490;-60
2023/09/24 02:01:03;;;;;;;4.13;2.90;;;11.60;99.90;;;;;;5096011;28;20052;-60
2023/09/24 02:03:29;;;;;;;4.10;3.05;;;11.60;99.90;;;;;;5096076;28;20036;-61
2023/09/24 02:05:55;;;;;;;3.90;2.75;;;11.60;99.90;;;;;;5093594;28;20044;-61
2023/09/24 02:08:21;;;;;;;3.00;2.70;;;11.60;99.90;;;;;;5074009;28;20100;-61
2023/09/24 02:10:47;;;;;;;4.22;2.90;;;11.60;99.90;;;;;;5089447;28;20136;-60
2023/09/24 02:13:14;;;;;;;2.70;2.50;;;11.50;99.90;;;;;;5093674;28;20081;-61
2023/09/24 02:15:40;;;;;;;5.72;3.03;;;11.50;99.90;;;;;;5094860;28;20976;-61
2023/09/24 02:18:06;;;;;;;4.28;2.70;;;11.50;99.90;;;;;;5059826;28;20113;-60
2023/09/24 02:20:32;;;;;;;6.13;2.92;;;11.40;99.90;;;;;;5076399;28;20398;-61
2023/09/24 02:23:00;;;;;;;3.47;2.50;;;11.40;99.90;;;;;;5093422;28;20082;-60
2023/09/24 02:25:28;;;;;;;4.90;2.50;;;11.40;99.90;;;;;;5092222;28;20036;-61
2023/09/24 02:27:55;;;;;;;3.63;2.53;;;11.40;99.90;;;;;;5095201;28;20256;-61
2023/09/24 02:30:24;;;;;;;4.88;2.75;;;11.30;99.90;;;;;;5094236;28;20035;-61
2023/09/24 02:32:49;;;;;;;3.45;2.58;;;11.30;99.90;;;;;;5076407;28;20530;-60
2023/09/24 02:35:16;;;;;;;6.95;2.65;;;11.30;99.90;;;;;;5073941;28;20048;-60
2023/09/24 02:37:45;;;;;;;4.57;2.35;;;11.30;99.90;;;;;;5074197;28;20056;-62
2023/09/24 02:40:21;;;;;;;6.32;2.65;;;11.30;99.90;;;;;;5091919;28;20036;-60
2023/09/24 02:42:47;;;;;;;4.68;2.53;;;11.20;99.90;;;;;;5054557;28;20035;-60
2023/09/24 02:45:15;;;;;;;2.67;2.33;;;11.20;99.90;;;;;;5095029;28;20132;-61
2023/09/24 02:47:42;;;;;;;2.63;2.33;;;11.20;99.90;;;;;;5092375;28;20091;-60
2023/09/24 02:50:12;;;;;;;3.25;2.38;;;11.10;99.90;;;;;;5092400;28;20039;-60
2023/09/24 02:52:39;;;;;;;3.42;2.40;;;11.10;99.90;;;;;;5087703;28;20069;-60
2023/09/24 02:55:06;;;;;;;4.03;2.35;;;11.10;99.90;;;;;;5076292;28;20051;-60
2023/09/24 02:57:32;;;;;;;3.33;2.50;;;11.10;99.90;;;;;;5085266;28;20175;-60
2023/09/24 02:59:58;;;;;;;4.28;2.45;;;11.00;99.90;;;;;;5068266;28;21299;-60
2023/09/24 03:02:27;;;;;;;4.65;2.33;;;11.00;99.90;;;;;;5083682;28;20059;-60
2023/09/24 03:04:53;;;;;;;4.72;2.53;;;11.00;99.90;;;;;;5074425;28;20491;-60
2023/09/24 03:07:19;;;;;;;2.47;2.28;;;11.00;99.90;;;;;;5075332;28;20038;-60
2023/09/24 03:09:45;;;;;;;4.80;2.45;;;11.00;99.90;;;;;;5075955;28;20118;-60
2023/09/24 03:12:12;;;;;;;3.15;2.65;;;10.90;99.90;;;;;;5083654;28;20071;-60
2023/09/24 03:14:37;;;;;;;3.83;2.70;;;10.90;99.90;;;;;;5087777;28;20046;-61
2023/09/24 03:17:03;;;;;;;3.03;2.47;;;10.90;99.90;;;;;;5098012;28;20402;-61
2023/09/24 03:19:29;;;;;;;3.80;2.88;;;10.90;99.90;;;;;;5109326;28;20044;-60
2023/09/24 03:21:55;;;;;;;4.03;2.70;;;10.90;99.90;;;;;;5081140;28;20031;-60
2023/09/24 03:24:21;;;;;;;4.22;2.58;;;10.90;99.90;;;;;;5100298;28;20587;-61
2023/09/24 03:26:47;;;;;;;3.20;2.55;;;10.80;99.90;;;;;;5083061;28;20096;-60
2023/09/24 03:29:13;;;;;;;3.95;2.78;;;10.80;99.90;;;;;;5081327;28;20044;-60
2023/09/24 03:31:38;;;;;;;4.70;2.58;;;10.80;99.90;;;;;;5072583;28;20043;-60
2023/09/24 03:34:04;;;;;;;3.97;3.17;;;10.80;99.90;;;;;;5062540;28;20048;-60
2023/09/24 03:36:30;;;;;;;5.00;2.80;;;10.70;99.90;;;;;;5107806;28;20080;-61
2023/09/24 03:38:56;;;;;;;4.53;3.10;;;10.70;99.90;;;;;;5083895;28;20055;-61
2023/09/24 03:41:23;;;;;;;4.82;2.90;;;10.70;99.90;;;;;;5100282;28;20100;-61
2023/09/24 03:43:48;;;;;;;4.78;2.92;;;10.70;99.90;;;;;;5099757;28;20100;-60
2023/09/24 03:46:15;;;;;;;6.60;3.80;;;10.60;99.90;;;;;;5081499;28;20027;-60
2023/09/24 03:48:40;;;;;;;7.43;3.70;;;10.60;99.90;;;;;;5101806;28;20051;-62
2023/09/24 03:51:06;;;;;;;4.63;3.40;;;10.60;99.90;;;;;;5102172;28;20406;-61
2023/09/24 03:53:32;;;;;;;5.25;3.53;;;10.60;99.90;;;;;;5067648;28;20071;-60
2023/09/24 03:55:58;;;;;;;4.00;3.38;;;10.60;99.90;;;;;;5104239;28;20032;-61
2023/09/24 03:58:24;;;;;;;3.80;3.40;;;10.60;99.90;;;;;;5090197;28;20123;-60
2023/09/24 04:00:49;;;;;;;5.68;3.67;;;10.50;99.90;;;;;;5106060;28;20126;-60
2023/09/24 04:03:16;;;;;;;6.10;3.72;;;10.50;99.90;;;;;;5108143;28;20406;-61
2023/09/24 04:05:42;;;;;;;6.65;3.70;;;10.60;99.90;;;;;;5091009;28;20046;-61
2023/09/24 04:08:08;;;;;;;7.70;3.83;;;10.50;99.90;;;;;;5077005;28;20506;-61
2023/09/24 04:10:34;;;;;;;7.93;4.35;;;10.50;99.90;;;;;;5077488;28;20036;-60
2023/09/24 04:13:00;;;;;;;6.93;4.85;;;10.50;99.90;;;;;;5099861;28;20399;-60
2023/09/24 04:15:27;;;;;;;7.55;3.58;;;10.50;99.90;;;;;;5081860;28;20036;-61
2023/09/24 04:17:56;;;;;;;4.60;3.90;;;10.40;99.90;;;;;;5079952;28;20101;-60
2023/09/24 04:20:22;;;;;;;6.85;3.92;;;10.40;99.90;;;;;;5081798;28;20043;-60
2023/09/24 04:22:51;;;;;;;5.20;3.80;;;10.40;99.90;;;;;;5075282;28;20047;-60
2023/09/24 04:25:20;;;;;;;7.03;4.03;;;10.40;99.90;;;;;;5096037;28;20036;-60
2023/09/24 04:27:47;;;;;;;5.70;4.15;;;10.40;99.90;;;;;;5104367;28;20046;-60
2023/09/24 04:30:16;;;;;;;4.68;4.15;;;10.40;99.90;;;;;;5089138;28;20047;-60
2023/09/24 04:32:47;;;;;;;9.00;4.50;;;10.40;99.90;;;;;;5101565;28;20089;-60
2023/09/24 04:35:13;;;;;;;6.05;4.13;;;10.40;99.90;;;;;;5101315;28;20078;-61
2023/09/24 04:37:39;;;;;;;5.35;4.00;;;10.30;99.90;;;;;;5105293;28;20070;-60
2023/09/24 04:40:10;;;;;;;6.00;4.30;;;10.30;99.90;;;;;;5098945;28;20561;-60
2023/09/24 04:42:36;;;;;;;6.20;3.90;;;10.30;99.90;;;;;;5107581;28;20156;-61
2023/09/24 04:45:03;;;;;;;8.98;4.93;;;10.30;99.90;;;;;;5105516;28;20498;-61
2023/09/24 04:47:29;;;;;;;7.07;4.38;;;10.30;99.90;;;;;;5083364;28;20065;-61
2023/09/24 04:49:54;;;;;;;6.95;4.97;;;10.30;99.90;;;;;;5082034;28;20112;-60
2023/09/24 04:52:20;;;;;;;6.38;4.50;;;10.30;99.90;;;;;;5069026;28;20052;-60
2023/09/24 04:54:46;;;;;;;7.75;4.40;;;10.30;99.90;;;;;;5105639;28;20038;-60
2023/09/24 04:57:11;;;;;;;9.73;5.15;;;10.30;99.90;;;;;;5089742;28;20044;-60
2023/09/24 04:59:37;;;;;;;5.95;4.30;;;10.30;99.90;;;;;;5090708;28;20036;-61
2023/09/24 05:02:03;;;;;;;7.82;4.35;;;10.30;99.90;;;;;;5103029;28;20047;-61
2023/09/24 05:04:29;;;;;;;13.77;5.65;;;10.20;99.90;;;;;;5086194;28;20051;-60
2023/09/24 05:06:54;;;;;;;8.82;4.55;;;10.30;99.90;;;;;;5066100;28;20510;-60
2023/09/24 05:09:21;;;;;;;8.85;5.28;;;10.20;99.90;;;;;;5089211;28;20105;-61
2023/09/24 05:11:47;;;;;;;9.45;5.18;;;10.20;99.90;;;;;;5089305;28;20105;-60
2023/09/24 05:14:13;;;;;;;9.38;5.30;;;10.20;99.90;;;;;;5089046;28;20063;-62
2023/09/24 05:16:38;;;;;;;7.55;5.25;;;10.20;99.90;;;;;;5105765;28;20405;-60
2023/09/24 05:19:05;;;;;;;7.38;5.13;;;10.20;99.90;;;;;;5084278;28;20048;-60
2023/09/24 05:21:31;;;;;;;7.80;5.43;;;10.20;99.90;;;;;;5085722;28;20048;-60
2023/09/24 05:23:57;;;;;;;8.40;5.20;;;10.20;99.90;;;;;;5107133;28;20039;-60
2023/09/24 05:26:23;;;;;;;7.80;5.65;;;10.20;99.90;;;;;;5108208;28;20451;-59
2023/09/24 05:28:48;;;;;;;8.60;5.65;;;10.20;99.90;;;;;;5101493;28;20066;-60
2023/09/24 05:31:16;;;;;;;10.30;5.30;;;10.10;99.90;;;;;;5101960;28;20035;-60
2023/09/24 05:33:44;;;;;;;9.02;5.20;;;10.20;99.90;;;;;;5084784;28;20074;-59
2023/09/24 05:36:10;;;;;;;10.50;5.65;;;10.10;99.90;;;;;;5081431;28;20079;-59
2023/09/24 05:38:36;;;;;;;9.55;6.15;;;10.20;99.90;;;;;;5102601;28;20108;-60
2023/09/24 05:41:02;;;;;;;7.72;5.32;;;10.20;99.90;;;;;;5082611;28;20051;-60
2023/09/24 05:43:27;;;;;;;9.52;6.07;;;10.20;99.90;;;;;;5109467;28;20663;-59
2023/09/24 05:45:53;;;;;;;10.05;6.38;;;10.20;99.90;;;;;;5104761;28;20047;-58
2023/09/24 05:48:19;;;;;;;7.00;5.72;;;10.30;99.90;;;;;;5088791;28;20044;-59
2023/09/24 05:50:45;;;;;;;10.30;6.38;;;10.20;99.90;;;;;;5103814;28;20036;-58
2023/09/24 05:53:12;;;;;;;10.95;6.78;;;10.20;99.90;;;;;;5107340;28;20067;-58
2023/09/24 05:55:38;;;;;;;7.28;5.53;;;10.30;99.90;;;;;;5086255;28;20522;-58
2023/09/24 05:58:07;;;;;;;9.75;5.72;;;10.20;99.90;;;;;;5087881;28;20180;-58
2023/09/24 06:00:36;;;;;;;8.45;5.80;;;10.30;99.90;;;;;;5103005;28;20051;-58
2023/09/24 06:03:02;;;;;;;9.30;6.03;;;10.30;99.90;;;;;;5107124;28;20116;-59
2023/09/24 06:05:31;;;;;;;8.55;6.03;;;10.30;99.90;;;;;;5083211;28;20429;-58
2023/09/24 06:07:56;;;;;;;11.25;6.55;;;10.30;99.90;;;;;;5097747;28;20127;-58
2023/09/24 06:10:23;;;;;;;10.18;6.32;;;10.40;99.90;;;;;;5099486;28;20435;-59
2023/09/24 06:12:48;;;;;;;9.30;6.10;;;10.40;99.90;;;;;;5101752;28;20118;-59
2023/09/24 06:15:14;;;;;;;12.15;6.18;;;10.40;99.90;;;;;;5100275;28;20113;-58
2023/09/24 06:17:40;;;;;;;9.00;5.95;;;10.50;99.90;;;;;;5097740;28;20036;-59
2023/09/24 06:20:07;;;;;;;8.38;6.15;;;10.50;99.90;;;;;;5102562;28;20040;-58
2023/09/24 06:22:33;;;;;;;8.05;6.05;;;10.60;99.90;;;;;;5082051;28;20395;-58
2023/09/24 06:24:59;;;;;;;11.90;6.00;;;10.60;99.90;;;;;;5095746;28;20028;-59
2023/09/24 06:27:24;;;;;;;7.38;5.97;;;10.70;99.90;;;;;;5098603;28;20486;-58
2023/09/24 06:29:50;;;;;;;8.48;5.65;;;10.80;99.90;;;;;;5094645;28;20075;-59
2023/09/24 06:32:16;;;;;;;11.32;6.22;;;10.80;99.90;;;;;;5110833;28;20501;-59
2023/09/24 06:34:41;;;;;;;7.93;5.60;;;10.90;99.90;;;;;;5097967;28;20048;-58
2023/09/24 06:37:07;;;;;;;9.18;5.88;;;11.00;99.90;;;;;;5107124;28;20031;-59
2023/09/24 06:39:33;;;;;;;8.98;5.63;;;11.10;99.90;;;;;;5105790;28;20398;-58
2023/09/24 06:42:00;;;;;;;10.90;7.07;;;11.20;99.90;;;;;;5101886;28;20047;-59
2023/09/24 06:44:26;;;;;;;10.68;6.28;;;11.30;99.90;;;;;;5096738;28;20036;-59
2023/09/24 06:46:52;;;;;;;9.63;5.88;;;11.30;99.90;;;;;;5100614;28;20031;-59
2023/09/24 06:49:19;;;;;;;9.30;6.38;;;11.30;99.90;;;;;;5078558;28;20372;-58
2023/09/24 06:51:45;;;;;;;10.23;5.93;;;11.40;99.90;;;;;;5088538;28;20105;-59
2023/09/24 06:54:11;;;;;;;9.68;5.88;;;11.40;99.90;;;;;;5103484;28;20044;-60
2023/09/24 06:56:36;;;;;;;10.55;6.28;;;11.50;99.90;;;;;;5110518;28;20449;-59
2023/09/24 06:59:09;;;;;;;10.10;6.28;;;11.60;99.90;;;;;;5083978;28;20087;-60
2023/09/24 07:01:35;;;;;;;;;;;11.60;99.90;;;;;;5103442;28;20035;-60
2023/09/24 07:04:00;;;;;;;8.73;5.57;;;11.70;99.90;;;;;;5074910;28;19922;-60
2023/09/24 07:06:26;;;;;;;11.43;6.70;;;11.80;99.90;;;;;;5090393;28;20478;-59
2023/09/24 07:08:52;;;;;;;9.20;6.18;;;12.00;99.90;;;;;;5071424;28;20048;-59
2023/09/24 07:11:33;;;;;;;11.05;6.35;;;12.20;99.90;;;;;;5072185;28;20540;-59
2023/09/24 07:14:01;;;;;;;7.35;5.80;;;12.30;99.90;;;;;;5090765;28;20044;-58
2023/09/24 07:16:27;;;;;;;9.52;5.60;;;12.40;99.90;;;;;;5105220;28;20040;-60
2023/09/24 07:18:54;;;;;;;11.15;6.22;;;12.50;99.90;;;;;;5092772;28;20477;-59
2023/09/24 07:21:28;;;;;;;8.57;5.75;;;12.60;99.90;;;;;;5083036;28;20491;-60
2023/09/24 07:23:58;;;;;;;9.10;6.05;;;12.60;99.90;;;;;;5110806;28;20050;-59
2023/09/24 07:26:24;;;;;;;8.88;5.22;;;12.70;99.90;;;;;;5110527;28;20035;-60
2023/09/24 07:28:52;;;;;;;9.77;5.72;;;12.80;99.90;;;;;;5110349;28;20130;-59
2023/09/24 07:31:21;;;;;;;7.57;5.80;;;13.00;99.90;;;;;;5098825;28;20039;-59
2023/09/24 07:33:47;;;;;;;8.13;5.57;;;13.10;99.90;;;;;;5105395;28;20039;-59
2023/09/24 07:36:13;;;;;;;9.05;5.57;;;13.10;99.90;;;;;;5091639;28;20487;-59
2023/09/24 07:38:41;;;;;;;7.85;5.25;;;13.30;99.90;;;;;;5090137;28;20052;-59
2023/09/24 07:41:08;;;;;;;7.25;5.35;;;13.30;99.90;;;;;;5090194;28;20056;-59
2023/09/24 07:43:35;;;;;;;7.82;5.18;;;13.50;99.90;;;;;;5101898;28;20086;-60
2023/09/24 07:46:01;;;;;;;9.27;5.45;;;13.50;99.90;;;;;;5103554;28;20083;-59
2023/09/24 07:48:27;;;;;;;8.25;5.25;;;13.60;99.90;;;;;;5089816;28;20071;-59
2023/09/24 07:50:55;;;;;;;9.27;5.68;;;13.70;99.90;;;;;;5090314;28;20044;-60
2023/09/24 07:53:22;;;;;;;8.18;5.50;;;13.80;99.90;;;;;;5090189;28;20032;-59
2023/09/24 07:56:14;;;;;;;10.30;5.40;;;13.90;99.90;;;;;;5055769;28;20123;-59
2023/09/24 07:58:41;;;;;;;7.97;5.20;;;14.00;99.90;;;;;;5086221;28;20132;-59
2023/09/24 08:01:14;;;;;;;7.13;5.13;;;14.10;99.90;;;;;;5078046;28;20130;-59
2023/09/24 08:03:43;;;;;;;7.95;4.80;;;14.30;99.90;;;;;;5110604;28;20533;-59
2023/09/24 08:06:09;;;;;;;9.60;4.63;;;14.30;99.90;;;;;;5108471;28;20030;-59
2023/09/24 08:08:35;;;;;;;7.63;5.30;;;14.40;99.90;;;;;;5089983;28;20032;-59
2023/09/24 08:11:01;;;;;;;7.30;5.00;;;14.50;99.90;;;;;;5090309;28;20088;-60
2023/09/24 08:13:27;;;;;;;10.15;5.35;;;14.50;99.90;;;;;;5106004;28;20035;-59
2023/09/24 08:15:56;;;;;;;7.90;4.68;;;14.50;99.90;;;;;;5107082;28;20081;-59
2023/09/24 08:18:22;;;;;;;7.25;5.00;;;14.50;99.90;;;;;;5094495;28;20040;-59
2023/09/24 08:20:49;;;;;;;7.68;4.95;;;14.50;99.90;;;;;;5106591;28;20406;-59
2023/09/24 08:23:15;;;;;;;7.13;4.63;;;14.60;99.90;;;;;;5094064;28;20040;-59
2023/09/24 08:25:40;;;;;;;8.05;4.45;;;14.70;99.90;;;;;;5093889;28;20032;-59
2023/09/24 08:28:08;;;;;;;6.18;4.30;;;14.80;99.90;;;;;;5093746;28;20044;-59
2023/09/24 08:30:34;;;;;;;7.07;4.40;;;15.00;99.90;;;;;;5093967;28;20491;-58
2023/09/24 08:32:59;;;;;;;7.00;4.38;;;15.20;99.90;;;;;;5093773;28;20062;-59
2023/09/24 08:35:26;;;;;;;6.30;4.13;;;15.30;99.90;;;;;;5095783;28;20044;-59
2023/09/24 08:37:52;;;;;;;6.72;4.18;;;15.50;99.90;;;;;;5093964;28;20683;-59
2023/09/24 08:40:18;;;;;;;6.78;4.28;;;15.70;99.90;;;;;;5109147;28;20055;-59
2023/09/24 08:42:48;;;;;;;8.68;4.30;;;15.80;99.90;;;;;;5114117;28;20541;-59
2023/09/24 08:45:16;;;;;;;6.50;4.07;;;16.00;99.90;;;;;;5113931;28;20119;-60
2023/09/24 08:47:43;;;;;;;7.90;4.30;;;16.10;99.90;;;;;;5113890;28;20036;-59
2023/09/24 08:50:09;;;;;;;9.25;3.83;;;16.20;99.90;;;;;;5114000;28;20556;-60
2023/09/24 08:52:37;;;;;;;6.93;4.13;;;16.40;99.90;;;;;;5114116;28;20036;-59
2023/09/24 08:55:12;;;;;;;8.50;3.50;;;16.60;99.90;;;;;;5113864;28;20439;-59
2023/09/24 08:57:38;;;;;;;8.95;4.10;;;16.70;99.90;;;;;;5104908;28;20040;-59
2023/09/24 09:00:06;;;;;;;7.93;3.63;;;16.90;99.90;;;;;;5075291;28;20036;-59
2023/09/24 09:02:32;;;;;;;6.93;3.72;;;17.00;99.90;;;;;;5075024;28;20043;-59
2023/09/24 09:04:58;;;;;;;4.40;3.35;;;17.20;99.90;;;;;;5075020;28;20305;-59
2023/09/24 09:07:24;;;;;;;4.90;3.30;;;17.30;99.90;;;;;;5093211;28;20044;-59
2023/09/24 09:09:54;;;;;;;5.78;3.72;;;17.50;99.90;;;;;;5078934;28;20036;-59
2023/09/24 09:12:21;;;;;;;7.82;3.17;;;17.60;99.90;;;;;;5075409;28;20118;-59
2023/09/24 09:14:46;;;;;;;6.07;3.58;;;17.70;99.90;;;;;;5093344;28;20036;-59
2023/09/24 09:17:12;;;;;;;5.47;3.28;;;17.90;99.90;;;;;;5093362;28;20039;-60
2023/09/24 09:19:55;;;;;;;7.00;3.28;;;18.00;99.90;;;;;;5074677;28;20040;-60
2023/09/24 09:22:26;;;;;;;7.20;3.20;;;18.20;99.90;;;;;;5107160;28;20119;-59
2023/09/24 09:25:04;;;;;;;5.10;2.88;;;18.30;99.90;;;;;;5111716;28;20050;-60
2023/09/24 09:27:43;;;;;;;7.03;3.10;;;18.40;99.90;;;;;;5094789;28;20051;-59
2023/09/24 09:30:18;;;;;;;6.28;3.17;;;18.60;99.90;;;;;;5113328;28;20040;-60
2023/09/24 09:32:45;;;;;;;5.95;2.83;;;18.70;99.90;;;;;;5112711;28;20067;-60
2023/09/24 09:35:12;;;;;;;6.90;2.90;;;18.80;99.90;;;;;;5109309;28;20380;-59
2023/09/24 09:37:42;;;;;;;7.07;2.72;;;18.90;99.90;;;;;;5102885;28;20024;-59
2023/09/24 09:40:09;;;;;;;6.60;2.70;;;18.90;99.90;;;;;;5112618;28;20047;-59
2023/09/24 09:42:37;;;;;;;4.88;2.60;;;19.00;99.90;;;;;;5106071;28;20546;-60
2023/09/24 09:45:08;;;;;;;5.05;2.38;;;19.10;99.90;;;;;;5092463;28;20436;-59
2023/09/24 09:47:43;;;;;;;3.97;2.38;;;19.30;99.90;;;;;;5074576;28;20387;-60
2023/09/24 09:50:11;;;;;;;4.35;2.28;;;19.40;99.90;;;;;;5087198;28;20088;-59
2023/09/24 09:52:43;;;;;;;6.00;2.60;;;19.30;99.90;;;;;;5097402;28;20407;-59
2023/09/24 09:55:09;;;;;;;6.82;2.10;;;19.30;99.90;;;;;;5096868;28;20119;-60
2023/09/24 09:57:35;;;;;;;6.45;2.10;;;19.50;99.90;;;;;;5112750;28;20034;-59
2023/09/24 10:00:05;;;;;;;4.07;1.55;;;19.70;99.90;;;;;;5099325;28;20032;-60
2023/09/24 10:02:32;;;;;;;6.60;2.00;;;19.90;99.90;;;;;;5073732;28;20442;-60
2023/09/24 10:04:59;;;;;;;8.10;1.83;;;20.10;99.90;;;;;;5091935;28;20043;-60
2023/09/24 10:07:24;;;;;;;4.43;1.73;;;20.10;99.90;;;;;;5073595;28;20131;-60
2023/09/24 10:09:50;;;;;;;4.13;1.65;;;20.00;99.90;;;;;;5091977;28;20119;-59
2023/09/24 10:12:37;;;;;;;4.57;1.85;;;20.10;99.90;;;;;;5092066;28;20036;-60
2023/09/24 10:15:25;;;;;;;3.65;1.40;;;20.10;99.90;;;;;;5091838;28;20510;-60
2023/09/24 10:18:10;;;;;;;3.42;1.40;;;20.30;99.90;;;;;;5102362;28;20115;-60
2023/09/24 10:20:50;;;;;;;5.57;1.48;;;20.50;99.90;;;;;;5097128;28;20094;-59
2023/09/24 10:23:34;;;;;;;4.20;1.15;;;20.50;99.90;;;;;;5091708;28;20036;-60
2023/09/24 10:26:06;;;;;;;2.90;1.38;;;20.70;99.90;;;;;;5102542;28;20062;-60
2023/09/24 10:28:47;;;;;;;;;;;20.80;99.90;;;;;;5092048;28;20032;-60
2023/09/24 10:31:14;;;;;;;3.53;1.40;;;20.90;99.90;;;;;;5076437;28;19927;-59
2023/09/24 10:33:56;;;;;;;3.67;1.48;;;21.20;99.90;;;;;;5093632;28;20039;-60
2023/09/24 10:36:31;;;;;;;3.13;1.40;;;21.40;99.90;;;;;;5107291;28;20036;-60
2023/09/24 10:39:12;;;;;;;4.20;1.30;;;21.60;99.90;;;;;;5093896;28;20421;-59
2023/09/24 10:42:10;;;;;;;5.07;1.40;;;21.80;99.90;;;;;;5111882;28;20039;-60
2023/09/24 10:44:36;;;;;;;4.32;1.70;;;21.70;97.20;;;;;;5098811;28;20436;-60
2023/09/24 10:47:25;;;;;;;4.13;1.60;;;21.80;99.90;;;;;;5072803;28;20032;-60
2023/09/24 10:50:00;;;;;;;3.45;1.33;;;22.00;99.90;;;;;;5091323;28;20043;-60
2023/09/24 10:52:26;;;;;;;5.78;1.30;;;22.10;99.90;;;;;;5074950;28;20383;-60
2023/09/24 10:54:51;;;;;;;2.75;1.35;;;22.30;99.90;;;;;;5095660;28;20122;-60
2023/09/24 10:57:28;;;;;;;3.38;1.35;;;22.50;99.40;;;;;;5091392;28;20077;-60
2023/09/24 10:59:54;;;;;;;3.10;1.27;;;22.30;96.20;;;;;;5091325;28;20506;-60
2023/09/24 11:02:20;;;;;;;3.17;1.30;;;22.00;96.00;;;;;;5110916;28;20067;-60
2023/09/24 11:04:46;;;;;;;3.75;1.30;;;22.50;98.20;;;;;;5093362;28;20055;-60
2023/09/24 11:07:12;;;;;;;3.25;1.17;;;22.80;99.70;;;;;;5111048;28;20040;-60
2023/09/24 11:09:38;;;;;;;2.38;1.13;;;22.80;96.20;;;;;;5111350;28;20032;-60
2023/09/24 11:12:09;;;;;;;3.10;1.40;;;22.80;95.40;;;;;;5093077;28;20047;-60
2023/09/24 11:14:35;;;;;;;3.28;1.02;;;22.40;92.70;;;;;;5089652;28;20044;-60
2023/09/24 11:17:01;;;;;;;3.20;0.93;;;22.80;95.80;;;;;;5091156;28;20036;-60
2023/09/24 11:19:47;;;;;;;3.33;1.30;;;22.90;96.00;;;;;;5090819;28;20114;-60
2023/09/24 11:22:23;;;;;;;5.53;1.65;;;23.10;93.60;;;;;;5090854;28;20131;-60
2023/09/24 11:25:09;;;;;;;3.28;1.30;;;23.40;95.80;;;;;;5091184;28;20040;-60
2023/09/24 11:27:46;;;;;;;3.70;1.25;;;23.40;96.00;;;;;;5090883;28;20437;-60
2023/09/24 11:30:11;;;;;;;2.95;1.17;;;23.50;94.40;;;;;;5090716;28;20036;-60
2023/09/24 11:32:37;;;;;;;5.43;1.25;;;23.10;93.30;;;;;;5091082;28;20097;-60
2023/09/24 11:35:14;;;;;;;2.65;0.90;;;22.70;92.50;;;;;;5072716;28;20044;-59
2023/09/24 11:37:57;;;;;;;3.90;1.05;;;22.70;93.70;;;;;;5072312;28;20048;-60
2023/09/24 11:40:29;;;;;;;3.47;1.15;;;22.60;92.00;;;;;;5090302;28;20119;-60
2023/09/24 11:43:01;;;;;;;2.25;1.23;;;22.20;93.30;;;;;;5090623;28;20081;-60
2023/09/24 11:45:53;;;;;;;3.72;1.20;;;22.20;94.00;;;;;;5090607;28;20093;-60
2023/09/24 11:48:24;;;;;;;2.33;1.20;;;22.20;93.60;;;;;;5089695;28;20070;-60
2023/09/24 11:51:00;;;;;;;3.75;1.15;;;22.10;92.80;;;;;;5090980;28;20042;-60
2023/09/24 11:53:26;;;;;;;2.83;0.98;;;21.90;93.00;;;;;;5091811;28;20401;-59
2023/09/24 11:55:56;;;;;;;5.30;1.17;;;21.80;94.70;;;;;;5111027;28;20115;-60
2023/09/24 11:58:26;;;;;;;5.22;1.40;;;21.60;94.20;;;;;;5110620;28;20082;-59
2023/09/24 12:00:52;;;;;;;2.50;0.95;;;21.40;94.20;;;;;;5092622;28;20410;-60
2023/09/24 12:03:20;;;;;;;4.03;1.20;;;21.40;95.40;;;;;;5110768;28;20047;-60
2023/09/24 12:05:47;;;;;;;3.28;1.10;;;21.10;95.20;;;;;;5096563;28;20059;-59
2023/09/24 12:08:12;;;;;;;3.10;1.30;;;20.90;95.20;;;;;;5090143;28;20426;-59
2023/09/24 12:10:40;;;;;;;5.90;1.35;;;20.70;96.30;;;;;;5071910;28;20051;-60
2023/09/24 12:13:09;;;;;;;3.08;1.30;;;20.50;96.60;;;;;;5090319;28;20044;-60
2023/09/24 12:15:36;;;;;;;3.53;1.10;;;20.30;96.20;;;;;;5090729;28;20031;-60
2023/09/24 12:18:04;;;;;;;4.30;1.10;;;20.30;96.60;;;;;;5110519;28;20032;-60
2023/09/24 12:20:31;;;;;;;4.38;1.27;;;20.20;96.80;;;;;;5092225;28;20048;-60
2023/09/24 12:22:59;;;;;;;3.47;1.35;;;20.10;97.90;;;;;;5110787;28;20375;-60
2023/09/24 12:25:24;;;;;;;4.85;1.20;;;20.00;97.70;;;;;;5110540;28;20491;-61
2023/09/24 12:27:50;;;;;;;2.35;1.05;;;19.90;97.10;;;;;;5106661;28;20122;-60
2023/09/24 12:30:16;;;;;;;3.15;1.08;;;19.80;97.90;;;;;;5072273;28;20185;-60
2023/09/24 12:32:42;;;;;;;3.58;1.38;;;19.70;98.30;;;;;;5089825;28;20036;-60
2023/09/24 12:35:11;;;;;;;3.90;1.40;;;19.60;98.40;;;;;;5090412;28;20040;-60
2023/09/24 12:37:38;;;;;;;3.67;1.20;;;19.60;99.20;;;;;;5109213;28;20055;-61
2023/09/24 12:40:07;;;;;;;4.97;1.42;;;19.60;99.40;;;;;;5110388;28;20096;-60
2023/09/24 12:42:40;;;;;;;5.50;1.30;;;19.50;99.40;;;;;;5092013;28;20093;-61
2023/09/24 12:45:09;;;;;;;3.58;1.40;;;19.40;98.60;;;;;;5110528;28;20145;-60
2023/09/24 12:47:35;;;;;;;4.88;1.42;;;19.40;99.40;;;;;;5099518;28;20398;-60
2023/09/24 12:50:03;;;;;;;2.30;1.13;;;19.40;99.20;;;;;;5089573;28;20115;-60